Time;durP1;ratioP1;P1;durP2;ratioP2;P2;SDS_P1;SDS_P2;PMS_P1;PMS_P2;Temp;Humidity;BMP_temperature;BMP_pressure;BME280_temperature;BME280_humidity;BME280_pressure;Samples;Min_cycle;Max_cycle;Signal;HPM_P1;HPM_P2
2022/05/07 00:00:22;;;;;;;45.90;29.05;;;12.70;99.90;;;;;;5049881;28;20025;-51
2022/05/07 00:02:48;;;;;;;43.28;29.67;;;12.60;99.90;;;;;;5049702;28;20032;-52
2022/05/07 00:05:14;;;;;;;42.28;27.88;;;12.60;99.90;;;;;;5049491;28;20116;-51
2022/05/07 00:07:39;;;;;;;47.25;29.45;;;12.50;99.90;;;;;;5049422;28;20148;-52
2022/05/07 00:10:06;;;;;;;48.28;30.38;;;12.50;99.90;;;;;;5048480;28;20534;-52
2022/05/07 00:12:32;;;;;;;44.67;28.63;;;12.40;99.90;;;;;;5040804;28;20506;-51
2022/05/07 00:14:57;;;;;;;50.13;31.52;;;12.30;99.90;;;;;;5038375;28;20025;-51
2022/05/07 00:20:09;;;;;;;49.53;29.42;;;12.20;99.90;;;;;;5040483;28;20112;-52
2022/05/07 00:22:34;;;;;;;44.05;28.92;;;12.10;99.90;;;;;;5040209;28;20025;-51
2022/05/07 00:25:00;;;;;;;48.03;29.85;;;12.10;99.90;;;;;;5038500;28;20034;-53
2022/05/07 00:27:26;;;;;;;44.28;28.88;;;12.10;99.90;;;;;;5038436;28;20033;-52
2022/05/07 00:29:52;;;;;;;49.83;29.92;;;12.10;99.90;;;;;;5039929;28;20021;-51
2022/05/07 00:32:18;;;;;;;49.67;30.58;;;12.00;99.90;;;;;;5037803;28;20026;-50
2022/05/07 00:34:43;;;;;;;45.15;28.63;;;12.00;99.90;;;;;;5038789;28;20025;-51
2022/05/07 00:37:09;;;;;;;41.38;26.15;;;12.10;99.90;;;;;;5039751;28;20017;-51
2022/05/07 00:39:35;;;;;;;40.17;25.48;;;12.00;99.90;;;;;;5040403;28;20068;-53
2022/05/07 00:42:07;;;;;;;43.00;27.27;;;12.00;99.90;;;;;;5042725;28;20456;-53
2022/05/07 00:44:34;;;;;;;50.58;31.40;;;11.90;99.90;;;;;;5043744;28;20106;-51
2022/05/07 00:47:26;;;;;;;49.97;30.55;;;11.90;99.90;;;;;;5041927;28;20033;-51
2022/05/07 00:49:54;;;;;;;50.47;31.25;;;11.90;99.90;;;;;;5043814;28;20112;-51
2022/05/07 00:52:20;;;;;;;53.05;32.95;;;11.90;99.90;;;;;;5042681;28;20135;-53
2022/05/07 00:54:47;;;;;;;52.55;31.25;;;11.80;99.90;;;;;;5042756;28;20108;-51
2022/05/07 00:57:14;;;;;;;51.97;31.85;;;11.70;99.90;;;;;;5033696;28;20567;-51
2022/05/07 00:59:40;;;;;;;57.75;34.47;;;11.70;99.90;;;;;;5041968;28;20080;-55
2022/05/07 01:02:06;;;;;;;48.17;31.13;;;11.50;99.90;;;;;;5043607;28;20100;-53
2022/05/07 01:04:32;;;;;;;56.20;34.30;;;11.70;99.90;;;;;;5017888;28;20511;-52
2022/05/07 01:07:01;;;;;;;53.13;32.67;;;11.70;99.90;;;;;;5041492;28;20069;-52
2022/05/07 01:09:27;;;;;;;54.05;33.33;;;11.80;99.90;;;;;;5041935;28;20082;-50
2022/05/07 01:11:54;;;;;;;53.73;31.73;;;11.80;99.90;;;;;;5044075;28;20025;-52
2022/05/07 01:14:20;;;;;;;47.35;30.25;;;11.80;99.90;;;;;;5017866;28;20029;-51
2022/05/07 01:16:46;;;;;;;47.08;29.80;;;11.90;99.90;;;;;;5041774;28;20025;-52
2022/05/07 01:19:11;;;;;;;48.08;30.35;;;11.90;99.90;;;;;;5044828;28;20497;-51
2022/05/07 01:21:37;;;;;;;49.25;29.83;;;12.00;99.90;;;;;;5043072;28;20053;-51
2022/05/07 01:24:04;;;;;;;49.47;31.08;;;11.90;99.90;;;;;;5042151;28;20104;-51
2022/05/07 01:26:29;;;;;;;50.03;30.73;;;12.00;99.90;;;;;;5041075;28;20034;-52
2022/05/07 01:29:00;;;;;;;51.05;30.45;;;12.00;99.90;;;;;;5042899;28;20765;-51
2022/05/07 01:31:27;;;;;;;48.45;29.83;;;12.00;99.90;;;;;;5033766;28;20111;-50
2022/05/07 01:33:53;;;;;;;;;;;12.00;99.90;;;;;;5041532;28;20030;-50
2022/05/07 01:36:19;;;;;;;51.95;31.20;;;12.00;99.90;;;;;;5042585;28;19912;-51
2022/05/07 01:38:46;;;;;;;53.25;31.50;;;12.00;99.90;;;;;;5034026;28;20025;-51
2022/05/07 01:41:12;;;;;;;59.40;30.85;;;12.00;99.90;;;;;;5040520;28;20076;-51
2022/05/07 01:43:38;;;;;;;55.15;30.40;;;12.00;99.90;;;;;;5034885;28;20017;-52
2022/05/07 01:48:09;;;;;;;48.80;30.38;;;12.00;99.90;;;;;;5031944;28;20026;-51
2022/05/07 01:48:50;;;;;;;43.40;28.95;;;12.00;99.90;;;;;;5031937;28;20033;-52
2022/05/07 01:51:15;;;;;;;49.20;30.70;;;12.00;99.90;;;;;;5030967;28;20021;-53
2022/05/07 01:53:41;;;;;;;47.25;28.65;;;12.00;99.90;;;;;;5032287;28;20029;-52
2022/05/07 01:56:07;;;;;;;47.05;28.67;;;12.00;99.90;;;;;;5032223;28;20116;-51
2022/05/07 01:58:32;;;;;;;43.83;27.50;;;12.10;99.90;;;;;;5031893;28;20104;-52
2022/05/07 02:00:58;;;;;;;39.30;26.90;;;12.10;99.90;;;;;;5031331;28;20025;-52
2022/05/07 02:03:23;;;;;;;42.58;27.52;;;12.10;99.90;;;;;;5031605;28;20033;-51
2022/05/07 02:05:49;;;;;;;43.92;28.17;;;12.10;99.90;;;;;;5031816;28;20112;-52
2022/05/07 02:08:15;;;;;;;44.45;28.17;;;12.10;99.90;;;;;;5031295;28;20525;-50
2022/05/07 02:10:40;;;;;;;43.03;26.83;;;12.10;99.90;;;;;;5031899;28;20017;-51
2022/05/07 02:13:06;;;;;;;42.05;25.45;;;12.10;99.90;;;;;;5045269;28;20040;-51
2022/05/07 02:15:32;;;;;;;43.13;26.48;;;12.10;99.90;;;;;;5051115;28;20032;-51
2022/05/07 02:17:58;;;;;;;41.88;26.65;;;12.10;99.90;;;;;;5051212;28;20032;-51
2022/05/07 02:20:24;;;;;;;45.05;28.25;;;12.10;99.90;;;;;;5051375;28;20086;-51
2022/05/07 02:22:55;;;;;;;40.50;26.35;;;12.00;99.90;;;;;;5051349;28;20029;-50
2022/05/07 02:25:22;;;;;;;46.45;28.08;;;12.00;99.90;;;;;;5051342;28;20496;-51
2022/05/07 02:27:48;;;;;;;43.05;27.33;;;12.00;99.90;;;;;;5033202;28;20032;-50
2022/05/07 02:30:14;;;;;;;44.10;28.05;;;12.00;99.90;;;;;;5051105;28;20165;-50
2022/05/07 02:32:40;;;;;;;43.42;27.00;;;12.00;99.90;;;;;;5050964;28;20500;-51
2022/05/07 02:35:06;;;;;;;39.25;26.92;;;11.90;99.90;;;;;;5050912;28;20036;-51
2022/05/07 02:37:31;;;;;;;41.53;27.48;;;12.00;99.90;;;;;;5050823;28;20029;-51
2022/05/07 02:39:57;;;;;;;45.55;28.13;;;12.00;99.90;;;;;;5051054;28;20108;-51
2022/05/07 02:42:39;;;;;;;41.38;27.02;;;12.00;99.90;;;;;;5050776;28;20025;-51
2022/05/07 02:45:06;;;;;;;42.05;28.05;;;12.10;99.90;;;;;;5050765;28;20028;-51
2022/05/07 02:47:42;;;;;;;40.05;26.73;;;12.00;99.90;;;;;;5044335;28;20037;-51
2022/05/07 02:50:10;;;;;;;41.00;27.35;;;12.00;99.90;;;;;;5047876;28;20389;-51
2022/05/07 02:52:36;;;;;;;43.80;26.98;;;12.00;99.90;;;;;;5032962;28;20021;-51
2022/05/07 02:55:04;;;;;;;41.17;25.90;;;12.00;99.90;;;;;;5039164;28;20059;-50
2022/05/07 02:57:29;;;;;;;36.88;25.85;;;12.10;99.90;;;;;;5030739;28;20106;-50
2022/05/07 02:59:55;;;;;;;38.08;25.92;;;12.00;99.90;;;;;;5030642;28;20497;-51
2022/05/07 03:02:21;;;;;;;40.50;27.33;;;12.10;99.90;;;;;;5029967;28;20029;-50
2022/05/07 03:04:47;;;;;;;48.13;28.30;;;12.10;99.90;;;;;;5030171;28;20028;-51
2022/05/07 03:07:14;;;;;;;46.50;28.42;;;12.00;99.90;;;;;;5041930;28;20060;-51
2022/05/07 03:09:40;;;;;;;44.38;30.35;;;12.10;99.90;;;;;;5049871;28;20025;-51
2022/05/07 03:12:06;;;;;;;55.33;31.83;;;12.10;99.90;;;;;;5050155;28;20036;-50
2022/05/07 03:14:32;;;;;;;54.13;33.63;;;12.10;99.90;;;;;;5049932;28;20032;-50
2022/05/07 03:16:58;;;;;;;53.10;32.20;;;12.10;99.90;;;;;;5050105;28;20504;-51
2022/05/07 03:19:24;;;;;;;42.83;27.95;;;12.10;99.90;;;;;;5049819;28;20032;-51
2022/05/07 03:21:50;;;;;;;43.05;28.60;;;12.10;99.90;;;;;;5049740;28;20021;-50
2022/05/07 03:24:15;;;;;;;41.03;28.92;;;12.10;99.90;;;;;;5050093;28;20017;-51
2022/05/07 03:26:41;;;;;;;49.63;30.35;;;12.00;99.90;;;;;;5049954;28;20132;-51
2022/05/07 03:29:07;;;;;;;40.20;26.05;;;11.90;99.90;;;;;;5049919;28;20045;-50
2022/05/07 03:31:33;;;;;;;44.47;27.17;;;12.00;99.90;;;;;;5049657;28;20025;-52
2022/05/07 03:33:58;;;;;;;40.47;25.48;;;12.00;99.90;;;;;;5049761;28;20464;-51
2022/05/07 03:36:24;;;;;;;38.00;25.38;;;12.00;99.90;;;;;;5050005;28;20108;-51
2022/05/07 03:38:50;;;;;;;40.13;27.23;;;12.10;99.90;;;;;;5049696;28;20083;-51
2022/05/07 03:41:15;;;;;;;38.67;25.42;;;12.10;99.90;;;;;;5049887;28;20025;-53
2022/05/07 03:43:41;;;;;;;42.83;27.90;;;12.10;99.90;;;;;;5038304;28;20690;-53
2022/05/07 03:46:10;;;;;;;39.38;25.98;;;12.10;99.90;;;;;;5029676;28;20053;-51
2022/05/07 03:48:36;;;;;;;38.28;27.02;;;12.20;99.90;;;;;;5029630;28;20033;-52
2022/05/07 03:51:02;;;;;;;41.85;26.52;;;12.10;99.90;;;;;;5029909;28;20033;-51
2022/05/07 03:53:31;;;;;;;42.08;26.25;;;12.20;99.90;;;;;;5029916;28;20105;-50
2022/05/07 03:56:01;;;;;;;44.40;28.08;;;12.10;99.90;;;;;;5029830;28;20029;-52
2022/05/07 03:58:27;;;;;;;42.53;28.90;;;12.20;99.90;;;;;;5029799;28;20124;-51
2022/05/07 04:00:54;;;;;;;47.05;28.52;;;12.20;99.90;;;;;;5029792;28;20033;-51
2022/05/07 04:03:20;;;;;;;;;;;12.20;99.90;;;;;;5029912;28;20416;-50
2022/05/07 04:05:46;;;;;;;45.03;29.45;;;12.20;99.90;;;;;;5029394;28;19905;-51
2022/05/07 04:08:12;;;;;;;48.25;29.63;;;12.10;99.90;;;;;;5029487;28;20100;-50
2022/05/07 04:10:38;;;;;;;44.65;29.92;;;12.20;99.90;;;;;;5029694;28;20057;-50
2022/05/07 04:13:04;;;;;;;45.70;30.08;;;12.20;99.90;;;;;;5029545;28;20061;-51
2022/05/07 04:15:31;;;;;;;44.60;31.13;;;12.20;99.90;;;;;;5033830;28;20038;-51
2022/05/07 04:17:57;;;;;;;47.45;32.05;;;12.20;99.90;;;;;;5034278;28;20109;-52
2022/05/07 04:20:23;;;;;;;46.90;32.58;;;12.10;99.90;;;;;;5053609;28;20037;-51
2022/05/07 04:22:49;;;;;;;50.22;33.60;;;12.20;99.90;;;;;;5053485;28;20028;-51
2022/05/07 04:25:14;;;;;;;48.92;32.78;;;12.20;99.90;;;;;;5053463;28;20048;-51
2022/05/07 04:27:40;;;;;;;52.67;33.25;;;12.20;99.90;;;;;;5053278;28;20112;-51
2022/05/07 04:30:06;;;;;;;55.42;34.17;;;12.20;99.90;;;;;;5053443;28;20033;-50
2022/05/07 04:32:32;;;;;;;53.97;33.40;;;12.20;99.90;;;;;;5053433;28;20070;-50
2022/05/07 04:34:58;;;;;;;57.00;33.03;;;12.20;99.90;;;;;;5053224;28;20112;-52
2022/05/07 04:37:27;;;;;;;49.47;32.85;;;12.30;99.90;;;;;;5053167;28;20025;-52
2022/05/07 04:39:53;;;;;;;54.72;33.90;;;12.30;99.90;;;;;;5053071;28;20126;-51
2022/05/07 04:42:18;;;;;;;52.40;34.90;;;12.30;99.90;;;;;;5052871;28;20521;-51
2022/05/07 04:44:44;;;;;;;58.38;35.42;;;12.40;99.90;;;;;;5033215;28;20028;-50
2022/05/07 04:47:10;;;;;;;60.75;37.42;;;12.50;99.90;;;;;;5031735;28;20033;-50
2022/05/07 04:49:36;;;;;;;57.83;36.05;;;12.50;99.90;;;;;;5033069;28;20029;-50
2022/05/07 04:52:05;;;;;;;55.53;35.95;;;12.60;99.90;;;;;;5033128;28;20504;-50
2022/05/07 04:54:31;;;;;;;61.67;38.40;;;12.60;99.90;;;;;;5033074;28;20041;-49
2022/05/07 04:56:57;;;;;;;59.40;38.15;;;12.60;99.90;;;;;;5032977;28;20035;-49
2022/05/07 04:59:23;;;;;;;60.42;38.95;;;12.60;99.90;;;;;;5032960;28;20026;-50
2022/05/07 05:01:49;;;;;;;63.13;39.92;;;12.60;99.90;;;;;;5032859;28;20116;-51
2022/05/07 05:04:14;;;;;;;61.58;38.85;;;12.50;99.90;;;;;;5032762;28;20021;-51
2022/05/07 05:06:40;;;;;;;61.35;37.50;;;12.60;99.90;;;;;;5032730;28;20468;-52
2022/05/07 05:09:07;;;;;;;63.95;37.35;;;12.70;99.90;;;;;;5032890;28;20041;-50
2022/05/07 05:11:34;;;;;;;62.47;37.70;;;12.80;99.90;;;;;;5032639;28;20130;-52
2022/05/07 05:14:00;;;;;;;54.95;35.83;;;12.80;99.90;;;;;;5032647;28;20384;-51
2022/05/07 05:16:26;;;;;;;60.53;37.67;;;12.80;99.90;;;;;;5032684;28;20673;-51
2022/05/07 05:18:52;;;;;;;67.60;39.47;;;12.90;99.90;;;;;;5041001;28;20063;-51
2022/05/07 05:21:19;;;;;;;61.28;37.15;;;12.90;99.90;;;;;;5052196;28;20036;-51
2022/05/07 05:23:47;;;;;;;65.82;38.22;;;12.90;99.90;;;;;;5052258;28;20056;-50
2022/05/07 05:26:13;;;;;;;61.10;38.20;;;13.00;99.90;;;;;;5052313;28;20036;-51
2022/05/07 05:28:40;;;;;;;54.47;36.17;;;13.00;99.90;;;;;;5052312;28;20090;-52
2022/05/07 05:31:06;;;;;;;54.80;35.47;;;13.00;99.90;;;;;;5052160;28;20043;-52
2022/05/07 05:33:32;;;;;;;52.72;34.40;;;13.10;99.90;;;;;;5052192;28;20111;-51
2022/05/07 05:35:58;;;;;;;54.17;35.03;;;13.10;99.90;;;;;;5052040;28;20470;-51
2022/05/07 05:38:24;;;;;;;60.72;36.78;;;13.10;99.90;;;;;;5051812;28;20852;-50
2022/05/07 05:40:50;;;;;;;53.53;35.42;;;13.10;99.90;;;;;;5052063;28;20025;-52
2022/05/07 05:43:17;;;;;;;55.20;33.30;;;13.20;99.90;;;;;;5044084;28;20029;-51
2022/05/07 05:48:18;;;;;;;54.92;32.33;;;13.20;99.90;;;;;;5208728;23;20053;-51
2022/05/07 05:50:45;;;;;;;48.88;30.70;;;13.20;99.90;;;;;;5050574;28;20056;-51
2022/05/07 05:53:10;;;;;;;50.63;31.30;;;13.30;99.90;;;;;;5050149;28;20514;-52
2022/05/07 05:55:36;;;;;;;50.40;31.15;;;13.30;99.90;;;;;;5050167;28;20028;-51
2022/05/07 05:58:02;;;;;;;44.35;28.67;;;13.30;99.90;;;;;;5051217;28;20024;-52
2022/05/07 06:00:27;;;;;;;48.15;29.40;;;13.40;99.90;;;;;;5051194;28;20033;-51
2022/05/07 06:02:53;;;;;;;46.78;28.13;;;13.40;99.90;;;;;;5051221;28;20064;-51
2022/05/07 06:05:19;;;;;;;44.92;25.85;;;13.40;99.90;;;;;;5051231;28;20025;-51
2022/05/07 06:07:45;;;;;;;40.92;24.23;;;13.50;99.90;;;;;;5050784;28;20086;-50
2022/05/07 06:10:11;;;;;;;38.10;23.20;;;13.50;99.90;;;;;;5049755;28;20025;-50
2022/05/07 06:12:37;;;;;;;38.85;23.63;;;13.50;99.90;;;;;;5051044;28;20033;-51
2022/05/07 06:15:04;;;;;;;41.45;23.58;;;13.50;99.90;;;;;;5051254;28;20021;-52
2022/05/07 06:17:29;;;;;;;38.00;23.70;;;13.50;99.90;;;;;;5051157;28;20108;-51
2022/05/07 06:19:55;;;;;;;39.80;22.73;;;13.60;99.90;;;;;;5050656;28;20484;-52
2022/05/07 06:22:21;;;;;;;42.72;23.73;;;13.70;99.90;;;;;;5051084;28;20048;-51
2022/05/07 06:27:33;;;;;;;43.53;25.33;;;13.70;99.90;;;;;;5050732;28;20028;-51
2022/05/07 06:30:04;;;;;;;40.78;24.42;;;13.80;99.90;;;;;;5050779;28;20057;-52
2022/05/07 06:32:34;;;;;;;43.67;25.48;;;13.80;99.90;;;;;;5050784;28;20044;-50
2022/05/07 06:35:04;;;;;;;41.65;24.50;;;13.90;99.90;;;;;;5050669;28;20033;-53
2022/05/07 06:37:31;;;;;;;39.88;22.75;;;13.90;99.90;;;;;;5048927;28;20025;-52
2022/05/07 06:39:57;;;;;;;38.53;22.70;;;13.90;99.90;;;;;;5050599;28;20032;-53
2022/05/07 06:42:24;;;;;;;39.97;23.73;;;14.00;99.90;;;;;;5051352;28;20067;-53
2022/05/07 06:44:50;;;;;;;38.95;21.80;;;14.00;99.90;;;;;;5069493;28;20036;-52
2022/05/07 06:47:16;;;;;;;40.33;22.77;;;14.00;99.90;;;;;;5070206;28;20054;-52
2022/05/07 06:49:45;;;;;;;35.97;23.13;;;14.00;99.90;;;;;;5070384;28;20123;-51
2022/05/07 06:52:11;;;;;;;45.80;23.17;;;14.00;99.90;;;;;;5070253;28;20020;-51
2022/05/07 06:54:37;;;;;;;39.20;23.42;;;14.00;99.90;;;;;;5070341;28;20032;-51
2022/05/07 06:57:04;;;;;;;38.00;22.75;;;14.10;99.90;;;;;;5070344;28;20017;-51
2022/05/07 06:59:30;;;;;;;39.70;22.23;;;14.10;99.90;;;;;;5070244;28;20069;-52
2022/05/07 07:01:57;;;;;;;37.63;21.60;;;14.10;99.90;;;;;;5070417;28;20437;-51
2022/05/07 07:04:24;;;;;;;43.95;22.73;;;14.00;99.90;;;;;;5069047;28;20025;-52
2022/05/07 07:06:50;;;;;;;35.08;21.08;;;14.10;99.90;;;;;;5070085;28;20510;-52
2022/05/07 07:09:16;;;;;;;37.92;19.70;;;14.10;99.90;;;;;;5070128;28;20033;-51
2022/05/07 07:11:42;;;;;;;34.10;20.27;;;14.10;99.90;;;;;;5068675;28;20432;-50
2022/05/07 07:14:08;;;;;;;33.15;19.48;;;14.20;99.90;;;;;;5069911;28;20170;-51
2022/05/07 07:16:33;;;;;;;36.60;20.58;;;14.20;99.90;;;;;;5070211;28;20079;-52
2022/05/07 07:18:59;;;;;;;41.00;20.77;;;14.20;99.90;;;;;;5064609;28;20028;-52
2022/05/07 07:21:25;;;;;;;35.83;19.60;;;14.20;99.90;;;;;;5050147;28;20021;-52
2022/05/07 07:23:51;;;;;;;34.80;19.17;;;14.20;99.90;;;;;;5048570;28;20035;-51
2022/05/07 07:26:17;;;;;;;32.90;18.92;;;14.30;99.90;;;;;;5049893;28;20088;-51
2022/05/07 07:28:43;;;;;;;33.42;19.20;;;14.30;99.90;;;;;;5049778;28;20396;-51
2022/05/07 07:31:10;;;;;;;29.23;17.10;;;14.30;99.90;;;;;;5049608;28;20367;-51
2022/05/07 07:33:39;;;;;;;29.92;16.98;;;14.30;99.90;;;;;;5049669;28;20025;-52
2022/05/07 07:36:06;;;;;;;26.80;17.20;;;14.20;99.90;;;;;;5049614;28;20017;-51
2022/05/07 07:38:32;;;;;;;32.55;18.10;;;14.30;99.90;;;;;;5049548;28;20387;-52
2022/05/07 07:40:58;;;;;;;29.55;14.18;;;14.30;99.90;;;;;;5048438;28;20033;-51
2022/05/07 07:43:23;;;;;;;26.08;14.60;;;14.40;99.90;;;;;;5058274;28;20013;-52
2022/05/07 07:48:34;;;;;;;22.52;13.77;;;14.40;99.90;;;;;;5068649;28;20140;-51
2022/05/07 07:51:00;;;;;;;28.42;14.35;;;14.50;99.90;;;;;;5069672;28;20383;-52
2022/05/07 07:53:26;;;;;;;23.40;13.47;;;14.40;99.90;;;;;;5070025;28;20522;-51
2022/05/07 07:55:52;;;;;;;27.80;13.40;;;14.50;99.90;;;;;;5069346;28;20124;-52
2022/05/07 07:58:18;;;;;;;25.50;13.73;;;14.60;99.90;;;;;;5068285;28;20032;-52
2022/05/07 08:00:46;;;;;;;24.23;14.05;;;14.60;99.90;;;;;;5069802;28;20099;-53
2022/05/07 08:03:15;;;;;;;25.55;13.35;;;14.70;99.90;;;;;;5069358;28;20492;-50
2022/05/07 08:05:42;;;;;;;25.15;13.45;;;14.70;99.90;;;;;;5069425;28;20020;-51
2022/05/07 08:13:44;;;;;;;23.05;11.95;;;14.90;99.90;;;;;;5049460;28;20097;-52
2022/05/07 08:16:10;;;;;;;22.15;10.38;;;14.90;99.90;;;;;;5049038;28;20016;-53
2022/05/07 08:18:37;;;;;;;22.42;11.80;;;15.00;99.90;;;;;;5049264;28;20044;-52
2022/05/07 08:21:03;;;;;;;24.83;12.33;;;15.10;99.90;;;;;;5049031;28;20475;-51
2022/05/07 08:23:29;;;;;;;26.13;12.18;;;15.10;99.90;;;;;;5049217;28;20268;-52
2022/05/07 08:25:55;;;;;;;17.05;10.68;;;15.10;99.90;;;;;;5049201;28;20653;-51
2022/05/07 08:28:23;;;;;;;23.20;11.13;;;15.10;99.90;;;;;;5049206;28;20036;-51
2022/05/07 08:30:49;;;;;;;23.15;12.05;;;15.10;99.90;;;;;;5049299;28;20037;-51
2022/05/07 08:33:17;;;;;;;19.85;11.75;;;15.20;99.90;;;;;;5049063;28;20013;-52
2022/05/07 08:35:43;;;;;;;20.67;12.27;;;15.20;99.90;;;;;;5048955;28;20043;-50
2022/05/07 08:38:09;;;;;;;19.27;11.55;;;15.30;99.90;;;;;;5048967;28;20399;-50
2022/05/07 08:40:35;;;;;;;23.48;11.27;;;15.30;99.90;;;;;;5048860;28;20086;-50
2022/05/07 08:43:02;;;;;;;27.02;11.68;;;15.40;99.90;;;;;;5054670;28;20028;-51
2022/05/07 08:45:28;;;;;;;;;;;15.40;99.90;;;;;;5069519;28;20029;-52
2022/05/07 08:47:53;;;;;;;22.08;11.90;;;15.50;99.90;;;;;;5068420;28;20335;-51
2022/05/07 08:50:20;;;;;;;22.27;11.65;;;15.60;99.90;;;;;;5057312;28;20025;-54
2022/05/07 08:52:47;;;;;;;24.73;11.48;;;15.60;99.90;;;;;;5048686;28;20028;-52
2022/05/07 08:55:17;;;;;;;30.10;13.07;;;15.60;99.90;;;;;;5048270;28;20063;-50
2022/05/07 08:57:45;;;;;;;18.17;10.70;;;15.70;99.90;;;;;;5048223;28;20120;-51
2022/05/07 09:00:13;;;;;;;24.00;11.05;;;15.80;99.90;;;;;;5050323;28;20017;-51
2022/05/07 09:02:41;;;;;;;23.58;10.38;;;15.80;99.90;;;;;;5048380;28;20451;-52
2022/05/07 09:05:12;;;;;;;30.00;12.10;;;15.80;99.90;;;;;;5050510;28;20065;-52
2022/05/07 09:07:41;;;;;;;21.33;11.45;;;15.80;99.90;;;;;;5051372;28;20593;-52
2022/05/07 09:10:13;;;;;;;29.05;13.82;;;15.80;99.90;;;;;;5051474;28;20036;-52
2022/05/07 09:12:39;;;;;;;31.33;13.57;;;15.80;99.90;;;;;;5050506;28;20032;-53
2022/05/07 09:15:06;;;;;;;27.58;13.20;;;15.90;99.90;;;;;;5049970;28;20051;-53
2022/05/07 09:17:33;;;;;;;27.20;13.02;;;15.80;99.90;;;;;;5050884;28;20033;-53
2022/05/07 09:20:09;;;;;;;29.13;13.25;;;15.90;99.90;;;;;;5051267;28;20029;-53
2022/05/07 09:22:34;;;;;;;28.25;12.68;;;15.90;99.90;;;;;;5052227;28;20028;-53
2022/05/07 09:25:00;;;;;;;26.85;13.60;;;15.90;99.90;;;;;;5051821;28;20032;-51
2022/05/07 09:27:26;;;;;;;35.75;12.35;;;15.90;99.90;;;;;;5051768;28;20065;-53
2022/05/07 09:29:59;;;;;;;24.85;13.23;;;16.00;99.90;;;;;;5051604;28;20142;-53
2022/05/07 09:32:37;;;;;;;29.25;13.35;;;16.00;99.90;;;;;;5051980;28;20032;-52
2022/05/07 09:38:01;;;;;;;28.23;11.10;;;16.00;99.90;;;;;;5051952;28;20279;-55
2022/05/07 09:40:27;;;;;;;27.50;10.52;;;16.00;99.90;;;;;;5051697;28;20064;-52
2022/05/07 09:42:57;;;;;;;25.58;10.10;;;16.00;99.90;;;;;;5056213;28;20021;-51
2022/05/07 09:45:32;;;;;;;22.33;9.85;;;16.00;99.90;;;;;;5071529;28;20040;-51
2022/05/07 09:47:58;;;;;;;25.30;10.52;;;16.00;99.90;;;;;;5071046;28;20044;-51
2022/05/07 09:50:46;;;;;;;27.17;9.40;;;16.00;99.90;;;;;;5069965;28;20025;-52
2022/05/07 09:59:12;;;;;;;21.88;7.68;;;16.10;99.90;;;;;;5013605;28;20040;-53
2022/05/07 10:01:56;;;;;;;16.38;8.48;;;16.10;99.90;;;;;;5071189;28;20020;-53
2022/05/07 10:04:32;;;;;;;20.17;7.95;;;16.20;99.90;;;;;;5069940;28;20028;-52
2022/05/07 10:07:04;;;;;;;19.38;7.95;;;16.20;99.90;;;;;;5069555;28;20487;-54
2022/05/07 10:09:47;;;;;;;16.20;7.63;;;16.10;99.90;;;;;;5068967;28;20059;-53
2022/05/07 10:12:19;;;;;;;20.33;9.45;;;16.20;99.90;;;;;;5069098;28;20529;-53
2022/05/07 10:14:45;;;;;;;22.02;10.10;;;16.10;99.90;;;;;;5070610;28;20037;-53
2022/05/07 10:17:12;;;;;;;25.20;9.88;;;16.10;99.90;;;;;;5070227;28;20120;-51
2022/05/07 10:19:40;;;;;;;20.55;10.05;;;16.00;99.90;;;;;;5068191;28;20077;-53
2022/05/07 10:22:18;;;;;;;;;;;16.10;99.90;;;;;;5049857;28;20867;-54
2022/05/07 10:24:45;;;;;;;20.63;9.57;;;16.10;99.90;;;;;;5049683;28;19916;-52
2022/05/07 10:27:34;;;;;;;17.70;7.95;;;16.10;99.90;;;;;;5050643;28;20547;-52
2022/05/07 10:30:05;;;;;;;19.05;7.70;;;16.10;99.90;;;;;;5050810;28;20041;-52
2022/05/07 10:32:41;;;;;;;15.10;7.40;;;16.20;99.90;;;;;;5050605;28;20025;-51
2022/05/07 10:35:07;;;;;;;18.23;8.60;;;16.20;99.90;;;;;;5050710;28;20521;-52
2022/05/07 10:37:43;;;;;;;16.20;7.75;;;16.20;99.90;;;;;;5050689;28;20021;-52
2022/05/07 10:40:12;;;;;;;16.73;8.27;;;16.30;99.90;;;;;;5050601;28;20057;-52
2022/05/07 10:42:40;;;;;;;16.10;8.15;;;16.30;99.90;;;;;;5052949;28;20035;-52
2022/05/07 10:45:19;;;;;;;19.33;8.43;;;16.30;99.90;;;;;;5070610;28;20453;-52
2022/05/07 10:47:54;;;;;;;14.85;9.18;;;16.30;99.90;;;;;;5070085;28;20044;-53
2022/05/07 10:50:23;;;;;;;20.23;9.13;;;16.20;99.90;;;;;;5070555;28;20024;-53
2022/05/07 10:52:56;;;;;;;14.25;8.57;;;16.30;99.90;;;;;;5070285;28;20099;-53
2022/05/07 10:55:26;;;;;;;20.40;9.13;;;16.30;99.90;;;;;;5068644;28;20031;-53
2022/05/07 10:57:52;;;;;;;17.10;7.75;;;16.30;99.90;;;;;;5070111;28;20700;-52
2022/05/07 11:00:21;;;;;;;17.83;8.73;;;16.40;99.90;;;;;;5070116;28;20024;-53
2022/05/07 11:02:51;;;;;;;19.90;9.20;;;16.50;99.90;;;;;;5069961;28;20112;-52
2022/05/07 11:05:27;;;;;;;19.48;8.20;;;16.50;99.90;;;;;;5070187;28;20555;-53
2022/05/07 11:08:02;;;;;;;16.25;7.65;;;16.60;99.90;;;;;;5069806;28;20036;-52
2022/05/07 11:10:28;;;;;;;15.95;7.28;;;16.50;99.90;;;;;;5069898;28;20117;-53
2022/05/07 11:13:08;;;;;;;27.92;8.07;;;16.60;99.90;;;;;;5069936;28;20025;-52
2022/05/07 11:15:34;;;;;;;13.02;6.82;;;16.60;99.90;;;;;;5069769;28;20445;-53
2022/05/07 11:18:00;;;;;;;16.67;8.13;;;16.60;98.80;;;;;;5069632;28;20562;-52
2022/05/07 11:20:31;;;;;;;16.70;6.60;;;16.60;96.70;;;;;;5060668;28;20397;-53
2022/05/07 11:23:01;;;;;;;16.92;7.93;;;16.60;90.20;;;;;;5049604;28;20349;-52
2022/05/07 11:25:28;;;;;;;20.77;8.00;;;16.50;94.10;;;;;;5049768;28;20092;-53
2022/05/07 11:27:55;;;;;;;13.48;6.25;;;16.60;96.20;;;;;;5049680;28;20388;-53
2022/05/07 11:30:22;;;;;;;13.20;6.93;;;16.70;87.00;;;;;;5049830;28;20037;-54
2022/05/07 11:32:48;;;;;;;16.38;7.68;;;16.80;89.10;;;;;;5049489;28;20031;-53
2022/05/07 11:35:14;;;;;;;17.35;7.85;;;16.70;86.90;;;;;;5049796;28;20112;-52
2022/05/07 11:37:44;;;;;;;18.85;7.22;;;16.80;88.30;;;;;;5049403;28;20049;-51
2022/05/07 11:40:11;;;;;;;14.38;8.45;;;16.80;91.70;;;;;;5049755;28;20025;-53
2022/05/07 11:42:43;;;;;;;15.48;6.82;;;16.90;91.20;;;;;;5051982;28;20028;-53
2022/05/07 11:45:31;;;;;;;15.13;7.60;;;17.00;89.90;;;;;;5069436;28;20033;-53
2022/05/07 11:48:03;;;;;;;19.55;7.32;;;17.10;91.90;;;;;;5069267;28;20044;-53
2022/05/07 11:50:42;;;;;;;14.13;8.25;;;16.90;90.20;;;;;;5069778;28;20021;-52
2022/05/07 11:53:16;;;;;;;18.17;7.53;;;17.00;93.40;;;;;;5068161;28;20551;-52
2022/05/07 11:55:43;;;;;;;15.52;8.13;;;17.00;90.00;;;;;;5069569;28;20055;-52
2022/05/07 11:58:17;;;;;;;16.60;6.38;;;17.00;91.40;;;;;;5069360;28;20021;-52
2022/05/07 12:00:45;;;;;;;15.52;6.40;;;17.10;92.10;;;;;;5069539;28;20064;-51
2022/05/07 12:03:11;;;;;;;12.23;6.32;;;17.10;91.90;;;;;;5069125;28;20531;-51
2022/05/07 12:05:42;;;;;;;17.80;7.55;;;17.30;89.40;;;;;;5069250;28;20052;-51
2022/05/07 12:08:12;;;;;;;13.15;5.95;;;17.20;90.90;;;;;;5069062;28;20098;-52
2022/05/07 12:10:37;;;;;;;17.77;8.45;;;17.40;90.40;;;;;;5069189;28;20526;-51
2022/05/07 12:13:03;;;;;;;11.65;6.63;;;17.50;89.60;;;;;;5069170;28;20033;-53
2022/05/07 12:18:14;;;;;;;13.63;7.13;;;17.70;84.20;;;;;;5069418;28;20047;-52
2022/05/07 12:20:40;;;;;;;17.42;6.97;;;17.80;86.70;;;;;;5058234;28;20029;-53
2022/05/07 12:31:18;;;;;;;14.20;5.93;;;18.00;84.30;;;;;;5049146;28;20052;-52
2022/05/07 12:33:43;;;;;;;12.00;5.95;;;18.10;82.90;;;;;;5048960;28;20013;-53
2022/05/07 12:36:09;;;;;;;18.05;6.15;;;18.00;88.10;;;;;;5051984;28;20017;-53
2022/05/07 12:38:35;;;;;;;11.80;5.43;;;18.00;82.90;;;;;;5052815;28;20078;-53
2022/05/07 12:41:01;;;;;;;10.38;4.88;;;18.00;84.10;;;;;;5052940;28;20085;-52
2022/05/07 12:43:28;;;;;;;11.75;5.22;;;18.00;82.10;;;;;;5061984;28;20013;-53
2022/05/07 12:45:54;;;;;;;13.98;5.28;;;18.00;84.00;;;;;;5072728;28;20021;-53
2022/05/07 12:48:20;;;;;;;10.93;5.57;;;18.10;86.20;;;;;;5072285;28;20070;-53
2022/05/07 12:50:46;;;;;;;10.40;5.67;;;18.20;87.70;;;;;;5072734;28;20082;-53
2022/05/07 12:53:15;;;;;;;12.95;5.43;;;18.30;90.50;;;;;;5072518;28;20755;-53
2022/05/07 12:55:42;;;;;;;11.68;5.88;;;18.40;87.70;;;;;;5072428;28;20017;-53
2022/05/07 12:58:10;;;;;;;;;;;18.50;88.40;;;;;;5072797;28;20021;-52
2022/05/07 13:00:40;;;;;;;14.02;6.70;;;18.70;83.20;;;;;;5072448;28;19905;-52
2022/05/07 13:03:09;;;;;;;12.90;5.80;;;18.80;82.50;;;;;;5072287;28;20016;-52
2022/05/07 13:05:36;;;;;;;11.68;5.78;;;19.00;81.80;;;;;;5072271;28;20019;-52
2022/05/07 13:08:04;;;;;;;18.67;6.40;;;19.10;79.30;;;;;;5072203;28;20031;-52